createdAt,value
2018-09-15T00:00:56.951Z,86.10
2018-09-15T00:03:32.052Z,86.40
2018-09-15T00:06:07.171Z,85.90
2018-09-15T00:08:41.798Z,86.00
2018-09-15T00:11:17.422Z,86.10
2018-09-15T00:13:52.136Z,86.60
2018-09-15T00:16:26.983Z,87.30
2018-09-15T00:19:01.655Z,86.90
2018-09-15T00:21:36.442Z,86.40
2018-09-15T00:24:11.421Z,86.10
2018-09-15T00:26:52.950Z,86.10
2018-09-15T00:29:27.711Z,86.70
2018-09-15T00:32:02.561Z,86.90
2018-09-15T00:34:37.529Z,87.40
2018-09-15T00:37:12.367Z,88.10
2018-09-15T00:39:47.159Z,88.10
2018-09-15T00:42:21.882Z,87.90
2018-09-15T00:44:56.770Z,88.00
2018-09-15T00:47:31.590Z,88.10
2018-09-15T00:50:06.855Z,87.70
2018-09-15T00:52:41.642Z,87.40
2018-09-15T00:55:17.322Z,87.40
2018-09-15T00:57:51.938Z,87.60
2018-09-15T01:00:26.885Z,87.60
2018-09-15T01:03:01.757Z,88.00
2018-09-15T01:05:36.931Z,88.30
2018-09-15T01:08:11.761Z,88.70
2018-09-15T01:10:46.701Z,89.70
2018-09-15T01:13:21.392Z,90.30
2018-09-15T01:15:56.221Z,90.20
2018-09-15T01:18:30.991Z,90.30
2018-09-15T01:21:06.059Z,90.30
2018-09-15T01:23:40.891Z,90.40
2018-09-15T01:26:15.719Z,90.30
2018-09-15T01:28:51.387Z,90.30
2018-09-15T01:31:26.122Z,90.20
2018-09-15T01:34:01.142Z,90.30
2018-09-15T01:36:36.042Z,90.40
2018-09-15T01:39:11.950Z,90.50
2018-09-15T01:41:46.571Z,90.40
2018-09-15T01:44:21.424Z,90.40
2018-09-15T01:46:56.334Z,90.50
2018-09-15T01:49:31.293Z,90.50
2018-09-15T01:52:06.064Z,90.70
2018-09-15T01:54:41.249Z,90.60
2018-09-15T01:57:16.090Z,90.70
2018-09-15T01:59:50.870Z,90.50
2018-09-15T02:02:25.722Z,90.40
2018-09-15T02:05:00.350Z,90.70
2018-09-15T02:07:35.201Z,91.20
2018-09-15T02:10:10.469Z,90.90
2018-09-15T02:12:45.368Z,90.80
2018-09-15T02:15:20.066Z,90.70
2018-09-15T02:17:54.706Z,90.80
2018-09-15T02:20:29.548Z,90.70
2018-09-15T02:23:04.517Z,90.70
2018-09-15T02:25:40.211Z,90.70
2018-09-15T02:28:14.821Z,90.60
2018-09-15T02:30:49.573Z,90.60
2018-09-15T02:33:24.522Z,90.60
2018-09-15T02:35:59.350Z,90.70
2018-09-15T02:38:34.073Z,90.50
2018-09-15T02:41:08.818Z,90.40
2018-09-15T02:43:44.156Z,90.40
2018-09-15T02:46:19.402Z,90.30
2018-09-15T02:48:54.082Z,90.20
2018-09-15T02:51:28.818Z,90.10
2018-09-15T02:54:03.541Z,90.20
2018-09-15T02:56:38.307Z,90.30
2018-09-15T02:59:13.084Z,90.40
2018-09-15T03:01:47.758Z,90.20
2018-09-15T03:04:22.666Z,90.20
2018-09-15T03:06:57.525Z,90.10
2018-09-15T03:09:32.282Z,89.20
2018-09-15T03:12:07.361Z,89.40
2018-09-15T03:14:42.035Z,89.40
2018-09-15T03:17:16.738Z,89.70
2018-09-15T03:19:51.922Z,90.00
2018-09-15T03:22:26.761Z,90.10
2018-09-15T03:25:01.528Z,89.80
2018-09-15T03:27:37.205Z,90.20
2018-09-15T03:30:12.449Z,89.90
2018-09-15T03:32:48.293Z,89.30
2018-09-15T03:35:23.051Z,89.00
2018-09-15T03:37:57.878Z,89.10
2018-09-15T03:40:39.374Z,89.10
2018-09-15T03:43:14.179Z,89.80
2018-09-15T03:45:49.614Z,90.00
2018-09-15T03:48:24.244Z,90.20
2018-09-15T03:50:58.974Z,90.40
2018-09-15T03:53:33.718Z,90.50
2018-09-15T03:56:08.558Z,90.60
2018-09-15T03:58:43.292Z,90.30
2018-09-15T04:01:18.039Z,90.00
2018-09-15T04:03:52.768Z,90.00
2018-09-15T04:06:27.591Z,90.10
2018-09-15T04:09:02.447Z,90.00
2018-09-15T04:11:37.486Z,90.10
2018-09-15T04:14:12.236Z,90.40
2018-09-15T04:16:47.510Z,90.40
2018-09-15T04:19:22.786Z,90.30
2018-09-15T04:21:58.060Z,90.10
2018-09-15T04:24:32.826Z,89.90
2018-09-15T04:27:07.654Z,89.90
2018-09-15T04:29:42.852Z,89.90
2018-09-15T04:32:17.813Z,89.70
2018-09-15T04:34:52.838Z,90.00
2018-09-15T04:37:28.224Z,90.00
2018-09-15T04:40:03.233Z,90.00
2018-09-15T04:42:38.054Z,89.80
2018-09-15T04:45:12.995Z,89.90
2018-09-15T04:47:49.079Z,90.00
2018-09-15T04:50:23.770Z,89.80
2018-09-15T04:52:59.370Z,89.90
2018-09-15T04:55:33.970Z,89.70
2018-09-15T04:58:08.658Z,89.60
2018-09-15T05:00:43.581Z,89.50
2018-09-15T05:03:19.025Z,89.40
2018-09-15T05:05:54.200Z,89.60
2018-09-15T05:08:29.126Z,89.40
2018-09-15T05:11:03.899Z,89.10
2018-09-15T05:13:39.269Z,89.30
2018-09-15T05:16:13.896Z,89.10
2018-09-15T05:18:49.301Z,88.60
2018-09-15T05:21:24.046Z,88.30
2018-09-15T05:23:58.994Z,88.00
2018-09-15T05:26:33.749Z,87.60
2018-09-15T05:29:08.556Z,87.70
2018-09-15T05:31:43.218Z,88.10
2018-09-15T05:34:18.145Z,87.70
2018-09-15T05:36:53.642Z,88.30
2018-09-15T05:39:28.411Z,87.00
2018-09-15T05:42:03.252Z,87.20
2018-09-15T05:44:38.586Z,86.90
2018-09-15T05:47:14.029Z,86.40
2018-09-15T05:49:48.833Z,86.30
2018-09-15T05:52:24.098Z,86.60
2018-09-15T05:55:00.167Z,86.80
2018-09-15T05:57:35.043Z,86.10
2018-09-15T06:00:10.122Z,86.30
2018-09-15T06:02:44.986Z,85.80
2018-09-15T06:05:20.240Z,85.70
2018-09-15T06:07:55.489Z,84.00
2018-09-15T06:10:30.327Z,84.30
2018-09-15T06:13:05.466Z,83.80
2018-09-15T06:15:40.195Z,83.60
2018-09-15T06:18:14.977Z,82.60
2018-09-15T06:20:49.861Z,82.50
2018-09-15T06:23:24.832Z,82.00
2018-09-15T06:25:59.732Z,81.60
2018-09-15T06:28:34.925Z,81.00
2018-09-15T06:31:09.590Z,81.30
2018-09-15T06:33:44.862Z,79.90
2018-09-15T06:36:19.599Z,77.60
2018-09-15T06:38:55.309Z,78.50
2018-09-15T06:41:30.026Z,77.30
2018-09-15T06:44:04.753Z,77.40
2018-09-15T06:46:39.478Z,76.20
2018-09-15T06:49:14.243Z,76.40
2018-09-15T06:51:49.119Z,76.10
2018-09-15T06:54:24.018Z,75.80
2018-09-15T06:56:59.028Z,75.70
2018-09-15T06:59:33.757Z,75.50
2018-09-15T07:02:09.090Z,76.20
2018-09-15T07:04:43.781Z,73.90
2018-09-15T07:07:18.513Z,74.00
2018-09-15T07:09:53.301Z,74.50
2018-09-15T07:12:28.193Z,73.50
2018-09-15T07:15:03.421Z,71.30
2018-09-15T07:17:38.390Z,70.90
2018-09-15T07:20:13.283Z,71.10
2018-09-15T07:22:48.200Z,71.10
2018-09-15T07:25:23.661Z,71.00
2018-09-15T07:27:58.583Z,69.90
2018-09-15T07:30:33.501Z,70.70
2018-09-15T07:33:08.367Z,68.40
2018-09-15T07:35:43.220Z,70.60
2018-09-15T07:38:18.057Z,69.70
2018-09-15T07:40:53.032Z,69.30
2018-09-15T07:43:28.377Z,70.20
2018-09-15T07:46:03.414Z,68.10
2018-09-15T07:48:38.259Z,68.40
2018-09-15T07:51:13.583Z,66.00
2018-09-15T07:53:48.825Z,65.00
2018-09-15T07:56:24.261Z,64.50
2018-09-15T07:58:59.831Z,61.90
2018-09-15T08:01:34.614Z,61.40
2018-09-15T08:04:10.158Z,61.10
2018-09-15T08:06:45.656Z,60.90
2018-09-15T08:09:21.525Z,59.60
2018-09-15T08:11:56.950Z,58.40
2018-09-15T08:14:32.291Z,58.10
2018-09-15T08:17:07.822Z,56.20
2018-09-15T08:19:43.165Z,56.30
2018-09-15T08:22:18.448Z,51.50
2018-09-15T08:24:53.956Z,53.30
2018-09-15T08:27:29.396Z,51.80
2018-09-15T08:30:05.198Z,52.00
2018-09-15T08:32:40.450Z,51.90
2018-09-15T08:35:15.825Z,49.90
2018-09-15T08:37:51.166Z,49.70
2018-09-15T08:40:26.615Z,47.80
2018-09-15T08:43:02.075Z,47.50
2018-09-15T08:45:38.502Z,48.70
2018-09-15T08:48:14.074Z,49.10
2018-09-15T08:50:49.702Z,47.20
2018-09-15T08:53:25.103Z,47.20
2018-09-15T08:56:01.672Z,46.40
2018-09-15T08:58:37.361Z,44.70
2018-09-15T09:01:12.813Z,43.10
2018-09-15T09:03:48.583Z,43.50
2018-09-15T09:06:24.493Z,43.10
2018-09-15T09:08:59.949Z,43.20
2018-09-15T09:11:35.301Z,43.10
2018-09-15T09:14:10.771Z,42.80
2018-09-15T09:16:46.170Z,41.90
2018-09-15T09:19:21.626Z,41.30
2018-09-15T09:21:56.958Z,40.50
2018-09-15T09:24:32.142Z,37.90
2018-09-15T09:27:07.378Z,39.20
2018-09-15T09:29:42.491Z,39.60
2018-09-15T09:32:17.561Z,39.30
2018-09-15T09:34:52.902Z,38.20
2018-09-15T09:37:28.007Z,38.30
2018-09-15T09:40:03.149Z,39.10
2018-09-15T09:42:38.762Z,37.80
2018-09-15T09:45:13.919Z,38.50
2018-09-15T09:47:49.008Z,36.60
2018-09-15T09:50:24.127Z,37.20
2018-09-15T09:53:02.446Z,38.00
2018-09-15T09:55:37.989Z,39.40
2018-09-15T09:58:13.734Z,40.30
2018-09-15T10:00:54.468Z,38.50
2018-09-15T10:03:29.654Z,36.50
2018-09-15T10:06:05.008Z,34.80
2018-09-15T10:08:39.995Z,35.60
2018-09-15T10:11:15.759Z,33.90
2018-09-15T10:13:50.965Z,34.80
2018-09-15T10:16:26.998Z,34.40
2018-09-15T10:19:01.947Z,34.50
2018-09-15T10:21:38.302Z,33.60
2018-09-15T10:24:13.991Z,34.70
2018-09-15T10:26:49.107Z,34.80
2018-09-15T10:29:24.350Z,33.70
2018-09-15T10:31:59.636Z,33.10
2018-09-15T10:34:34.856Z,31.80
2018-09-15T10:37:09.962Z,33.60
2018-09-15T10:39:45.055Z,35.20
2018-09-15T10:42:20.474Z,35.00
2018-09-15T10:44:55.541Z,35.80
2018-09-15T10:47:31.258Z,33.10
2018-09-15T10:50:06.866Z,31.60
2018-09-15T10:52:41.933Z,32.00
2018-09-15T10:55:17.161Z,30.00
2018-09-15T10:57:53.178Z,29.50
2018-09-15T11:00:28.828Z,33.00
2018-09-15T11:03:03.977Z,31.00
2018-09-15T11:05:39.207Z,31.40
2018-09-15T11:08:15.004Z,29.80
2018-09-15T11:10:50.195Z,30.70
2018-09-15T11:13:25.485Z,30.80
2018-09-15T11:16:00.577Z,31.20
2018-09-15T11:18:35.769Z,32.70
2018-09-15T11:21:10.797Z,30.10
2018-09-15T11:23:45.842Z,29.60
2018-09-15T11:26:20.882Z,29.30
2018-09-15T11:28:56.128Z,28.40
2018-09-15T11:31:31.349Z,30.00
2018-09-15T11:34:06.664Z,29.20
2018-09-15T11:36:41.918Z,28.40
2018-09-15T11:39:17.926Z,26.80
2018-09-15T11:41:53.118Z,28.00
2018-09-15T11:44:28.147Z,28.90
2018-09-15T11:47:03.293Z,29.80
2018-09-15T11:49:38.330Z,28.20
2018-09-15T11:52:14.184Z,28.60
2018-09-15T11:54:49.410Z,28.40
2018-09-15T11:57:24.537Z,26.70
2018-09-15T11:59:59.647Z,27.40
2018-09-15T12:02:35.673Z,28.20
2018-09-15T12:05:10.908Z,27.40
2018-09-15T12:07:45.885Z,28.20
2018-09-15T12:10:21.722Z,27.40
2018-09-15T12:12:56.774Z,27.70
2018-09-15T12:15:31.862Z,26.10
2018-09-15T12:18:06.994Z,27.50
2018-09-15T12:20:42.529Z,27.60
2018-09-15T12:23:17.802Z,27.10
2018-09-15T12:25:52.917Z,26.70
2018-09-15T12:30:55.460Z,25.60
2018-09-15T12:33:30.406Z,27.10
2018-09-15T12:36:05.951Z,27.00
2018-09-15T12:38:41.291Z,27.50
2018-09-15T12:43:42.874Z,27.00
2018-09-15T12:46:18.527Z,27.70
2018-09-15T12:48:53.798Z,26.60
2018-09-15T12:51:28.933Z,26.90
2018-09-15T12:54:03.977Z,27.10
2018-09-15T12:56:39.790Z,26.30
2018-09-15T12:59:14.782Z,25.30
2018-09-15T13:04:16.521Z,26.60
2018-09-15T13:06:51.588Z,25.90
2018-09-15T13:09:26.641Z,27.00
2018-09-15T13:12:01.762Z,27.60
2018-09-15T13:14:37.771Z,26.40
2018-09-15T13:17:13.946Z,25.90
2018-09-15T13:19:49.096Z,26.40
2018-09-15T13:22:24.237Z,26.30
2018-09-15T13:25:00.167Z,26.80
2018-09-15T13:27:35.142Z,26.30
2018-09-15T13:30:10.331Z,24.70
2018-09-15T13:32:45.596Z,25.60
2018-09-15T13:35:20.915Z,25.50
2018-09-15T13:37:55.913Z,26.10
2018-09-15T13:40:31.120Z,25.50
2018-09-15T13:43:06.340Z,25.70
2018-09-15T13:45:41.377Z,26.00
2018-09-15T13:48:16.470Z,26.30
2018-09-15T13:50:51.614Z,25.60
2018-09-15T13:53:27.892Z,25.10
2018-09-15T13:56:03.149Z,24.90
2018-09-15T13:58:38.390Z,24.90
2018-09-15T14:01:13.681Z,25.70
2018-09-15T14:03:49.375Z,25.20
2018-09-15T14:06:25.375Z,24.90
2018-09-15T14:09:00.634Z,25.20
2018-09-15T14:11:35.531Z,26.40
2018-09-15T14:14:10.807Z,24.30
2018-09-15T14:16:45.967Z,24.60
2018-09-15T14:19:21.106Z,25.90
2018-09-15T14:21:56.234Z,25.40
2018-09-15T14:24:31.294Z,24.70
2018-09-15T14:27:06.411Z,24.30
2018-09-15T14:29:41.481Z,24.80
2018-09-15T14:32:16.606Z,26.60
2018-09-15T14:34:51.780Z,26.00
2018-09-15T14:37:26.961Z,25.90
2018-09-15T14:40:01.907Z,25.40
2018-09-15T14:42:36.867Z,23.70
2018-09-15T14:45:11.980Z,25.60
2018-09-15T14:47:47.605Z,25.50
2018-09-15T14:50:22.840Z,25.50
2018-09-15T14:52:58.193Z,25.10
2018-09-15T14:55:33.239Z,25.90
2018-09-15T14:58:08.365Z,25.70
2018-09-15T15:00:43.570Z,25.90
2018-09-15T15:03:18.886Z,24.60
2018-09-15T15:05:54.082Z,25.30
2018-09-15T15:08:29.220Z,25.60
2018-09-15T15:11:04.679Z,25.20
2018-09-15T15:13:39.818Z,25.40
2018-09-15T15:16:15.035Z,24.40
2018-09-15T15:18:49.907Z,25.20
2018-09-15T15:21:25.300Z,25.10
2018-09-15T15:24:00.295Z,25.80
2018-09-15T15:26:35.445Z,26.50
2018-09-15T15:29:10.575Z,25.90
2018-09-15T15:31:45.606Z,26.10
2018-09-15T15:34:20.871Z,25.80
2018-09-15T15:36:55.928Z,27.90
2018-09-15T15:39:31.227Z,27.20
2018-09-15T15:42:06.583Z,26.80
2018-09-15T15:44:41.959Z,27.40
2018-09-15T15:47:17.093Z,27.50
2018-09-15T15:49:52.057Z,28.20
2018-09-15T15:52:27.330Z,28.30
2018-09-15T15:55:02.434Z,30.00
2018-09-15T15:57:37.566Z,30.80
2018-09-15T16:00:12.699Z,30.30
2018-09-15T16:02:48.088Z,29.80
2018-09-15T16:05:23.084Z,30.90
2018-09-15T16:07:58.223Z,30.50
2018-09-15T16:10:33.317Z,30.80
2018-09-15T16:13:08.466Z,30.40
2018-09-15T16:15:43.439Z,31.00
2018-09-15T16:18:18.693Z,30.00
2018-09-15T16:20:53.933Z,29.80
2018-09-15T16:23:29.313Z,29.70
2018-09-15T16:26:04.321Z,30.90
2018-09-15T16:28:39.360Z,29.90
2018-09-15T16:31:14.545Z,29.60
2018-09-15T16:33:49.658Z,30.00
2018-09-15T16:36:25.522Z,30.70
2018-09-15T16:39:00.681Z,30.20
2018-09-15T16:41:35.619Z,29.60
2018-09-15T16:44:10.573Z,30.00
2018-09-15T16:46:45.558Z,31.00
2018-09-15T16:49:21.350Z,31.30
2018-09-15T16:51:56.493Z,32.20
2018-09-15T16:54:32.094Z,32.10
2018-09-15T16:57:07.046Z,32.00
2018-09-15T16:59:42.158Z,32.40
2018-09-15T17:02:17.429Z,33.10
2018-09-15T17:04:52.459Z,33.00
2018-09-15T17:07:28.074Z,33.10
2018-09-15T17:10:03.536Z,33.80
2018-09-15T17:12:39.023Z,35.10
2018-09-15T17:15:14.422Z,36.20
2018-09-15T17:17:49.840Z,37.20
2018-09-15T17:20:25.338Z,37.50
2018-09-15T17:23:01.596Z,38.20
2018-09-15T17:25:36.923Z,39.10
2018-09-15T17:28:12.297Z,39.90
2018-09-15T17:30:47.881Z,40.30
2018-09-15T17:33:23.102Z,41.40
2018-09-15T17:35:58.838Z,43.50
2018-09-15T17:38:34.527Z,43.70
2018-09-15T17:41:09.926Z,45.20
2018-09-15T17:43:45.714Z,45.80
2018-09-15T17:46:21.194Z,46.20
2018-09-15T17:48:57.068Z,45.50
2018-09-15T17:51:33.377Z,45.30
2018-09-15T17:54:09.289Z,45.60
2018-09-15T17:56:44.683Z,46.50
2018-09-15T17:59:20.014Z,47.50
2018-09-15T18:01:55.570Z,47.70
2018-09-15T18:04:31.238Z,47.70
2018-09-15T18:07:06.700Z,47.70
2018-09-15T18:09:42.444Z,47.60
2018-09-15T18:12:18.453Z,48.30
2018-09-15T18:14:54.023Z,48.90
2018-09-15T18:17:30.161Z,50.90
2018-09-15T18:20:06.105Z,51.70
2018-09-15T18:22:41.261Z,52.00
2018-09-15T18:25:16.491Z,52.30
2018-09-15T18:27:52.726Z,52.60
2018-09-15T18:30:28.438Z,52.30
2018-09-15T18:33:03.807Z,52.30
2018-09-15T18:35:39.525Z,52.30
2018-09-15T18:38:14.937Z,52.60
2018-09-15T18:40:50.441Z,53.10
2018-09-15T18:43:25.764Z,53.10
2018-09-15T18:46:01.179Z,53.60
2018-09-15T18:48:36.069Z,55.30
2018-09-15T18:51:10.989Z,55.30
2018-09-15T18:53:45.814Z,54.90
2018-09-15T18:56:21.707Z,54.90
2018-09-15T18:58:56.983Z,55.10
2018-09-15T19:01:31.674Z,55.00
2018-09-15T19:04:06.937Z,54.80
2018-09-15T19:06:42.174Z,54.90
2018-09-15T19:09:17.073Z,55.50
2018-09-15T19:11:52.332Z,55.90
2018-09-15T19:14:27.259Z,55.80
2018-09-15T19:17:02.397Z,56.00
2018-09-15T19:19:37.379Z,56.50
2018-09-15T19:22:12.454Z,56.30
2018-09-15T19:24:47.602Z,57.00
2018-09-15T19:27:22.677Z,57.50
2018-09-15T19:29:57.637Z,57.50
2018-09-15T19:32:32.466Z,58.20
2018-09-15T19:35:07.806Z,58.00
2018-09-15T19:37:42.640Z,57.80
2018-09-15T19:40:18.197Z,58.20
2018-09-15T19:42:53.248Z,58.70
2018-09-15T19:45:28.288Z,58.80
2018-09-15T19:48:03.994Z,58.80
2018-09-15T19:50:38.961Z,58.80
2018-09-15T19:53:14.055Z,58.80
2018-09-15T19:55:49.027Z,59.40
2018-09-15T19:58:24.030Z,59.50
2018-09-15T20:00:59.621Z,59.70
2018-09-15T20:03:34.404Z,59.60
2018-09-15T20:06:09.972Z,60.80
2018-09-15T20:08:45.289Z,59.80
2018-09-15T20:11:20.155Z,60.00
2018-09-15T20:13:55.015Z,59.80
2018-09-15T20:16:28.690Z,60.30
2018-09-15T20:19:02.461Z,60.60
2018-09-15T20:21:36.332Z,60.30
2018-09-15T20:24:11.134Z,61.00
2018-09-15T20:26:46.505Z,60.80
2018-09-15T20:29:21.486Z,61.00
2018-09-15T20:31:56.299Z,61.10
2018-09-15T20:34:31.285Z,61.60
2018-09-15T20:37:07.723Z,60.70
2018-09-15T20:39:44.840Z,61.60
2018-09-15T20:42:20.476Z,61.40
2018-09-15T20:44:56.005Z,61.90
2018-09-15T20:47:30.907Z,61.90
2018-09-15T20:50:05.998Z,61.90
2018-09-15T20:52:40.908Z,62.10
2018-09-15T20:55:15.728Z,62.60
2018-09-15T20:57:50.764Z,63.40
2018-09-15T21:00:26.295Z,63.00
2018-09-15T21:03:01.247Z,63.30
2018-09-15T21:05:36.214Z,63.50
2018-09-15T21:08:11.754Z,63.40
2018-09-15T21:10:47.832Z,63.20
2018-09-15T21:13:22.654Z,63.30
2018-09-15T21:15:58.677Z,63.40
2018-09-15T21:18:33.641Z,63.50
2018-09-15T21:21:08.569Z,64.30
2018-09-15T21:23:43.318Z,64.50
2018-09-15T21:26:19.029Z,64.00
2018-09-15T21:28:53.926Z,64.30
2018-09-15T21:31:28.719Z,64.80
2018-09-15T21:34:04.148Z,64.50
2018-09-15T21:36:39.399Z,64.50
2018-09-15T21:39:14.322Z,64.20
2018-09-15T21:41:49.572Z,64.60
2018-09-15T21:44:24.433Z,65.00
2018-09-15T21:46:59.159Z,64.90
2018-09-15T21:49:34.562Z,64.60
2018-09-15T21:52:09.317Z,64.70
2018-09-15T21:54:44.041Z,65.00
2018-09-15T21:57:19.088Z,64.90
2018-09-15T21:59:55.008Z,65.00
2018-09-15T22:02:32.295Z,65.40
2018-09-15T22:05:08.284Z,65.50
2018-09-15T22:07:43.255Z,65.90
2018-09-15T22:10:18.168Z,65.60
2018-09-15T22:12:53.300Z,66.30
2018-09-15T22:15:28.590Z,66.30
2018-09-15T22:18:03.922Z,65.90
2018-09-15T22:20:38.779Z,66.40
2018-09-15T22:23:13.746Z,66.00
2018-09-15T22:25:48.502Z,66.60
2018-09-15T22:28:23.535Z,66.70
2018-09-15T22:30:58.329Z,66.60
2018-09-15T22:33:33.332Z,66.50
2018-09-15T22:36:08.173Z,66.90
2018-09-15T22:38:43.097Z,67.40
2018-09-15T22:41:17.963Z,67.70
2018-09-15T22:43:52.830Z,67.70
2018-09-15T22:46:27.745Z,68.40
2018-09-15T22:49:09.595Z,68.10
2018-09-15T22:51:44.418Z,68.10
2018-09-15T22:54:19.172Z,67.60
2018-09-15T22:56:54.246Z,67.90
2018-09-15T22:59:29.460Z,68.10
2018-09-15T23:02:04.438Z,68.10
2018-09-15T23:04:39.430Z,67.80
2018-09-15T23:07:14.045Z,68.50
2018-09-15T23:09:49.777Z,69.70
2018-09-15T23:12:24.808Z,69.40
2018-09-15T23:14:59.794Z,69.50
2018-09-15T23:17:34.495Z,69.60
2018-09-15T23:20:09.351Z,69.10
2018-09-15T23:22:44.737Z,69.20
2018-09-15T23:25:19.498Z,69.60
2018-09-15T23:27:54.954Z,69.30
2018-09-15T23:30:29.765Z,69.50
2018-09-15T23:33:05.906Z,69.60
2018-09-15T23:35:40.604Z,69.70
2018-09-15T23:38:16.199Z,69.50
2018-09-15T23:40:51.181Z,69.90
2018-09-15T23:43:26.007Z,70.10
2018-09-15T23:46:01.228Z,70.30
2018-09-15T23:48:36.200Z,70.70
2018-09-15T23:51:10.866Z,70.70
2018-09-15T23:53:46.165Z,70.80
2018-09-15T23:56:20.997Z,71.10
2018-09-15T23:58:56.036Z,70.90
